sensor_id;sensor_type;location;lat;lon;timestamp;pressure;altitude;pressure_sealevel;temperature;humidity
20612;BME280;10465;42.686;23.364;2023-03-22T00:01:19;94649.63;;;12.48;84.99
20612;BME280;10465;42.686;23.364;2023-03-22T00:03:46;94649.00;;;12.43;84.14
20612;BME280;10465;42.686;23.364;2023-03-22T00:06:12;94617.28;;;12.25;84.88
20612;BME280;10465;42.686;23.364;2023-03-22T00:08:38;94641.38;;;12.41;85.04
20612;BME280;10465;42.686;23.364;2023-03-22T00:11:05;94632.81;;;12.35;84.64
20612;BME280;10465;42.686;23.364;2023-03-22T00:13:32;94646.06;;;12.44;85.46
20612;BME280;10465;42.686;23.364;2023-03-22T00:15:58;94621.59;;;12.30;85.34
20612;BME280;10465;42.686;23.364;2023-03-22T00:18:25;94635.09;;;12.46;84.80
20612;BME280;10465;42.686;23.364;2023-03-22T00:20:52;94609.88;;;12.31;84.88
20612;BME280;10465;42.686;23.364;2023-03-22T00:23:18;94640.09;;;12.47;84.90
20612;BME280;10465;42.686;23.364;2023-03-22T00:25:44;94636.06;;;12.41;85.25
20612;BME280;10465;42.686;23.364;2023-03-22T00:28:11;94630.75;;;12.41;84.71
20612;BME280;10465;42.686;23.364;2023-03-22T00:30:37;94616.09;;;12.35;84.91
20612;BME280;10465;42.686;23.364;2023-03-22T00:33:03;94628.75;;;12.38;85.45
20612;BME280;10465;42.686;23.364;2023-03-22T00:35:28;94620.34;;;12.36;85.42
20612;BME280;10465;42.686;23.364;2023-03-22T00:37:54;94572.16;;;11.96;86.19
20612;BME280;10465;42.686;23.364;2023-03-22T00:40:19;94632.03;;;12.35;86.35
20612;BME280;10465;42.686;23.364;2023-03-22T00:42:45;94624.53;;;12.37;86.71
20612;BME280;10465;42.686;23.364;2023-03-22T00:45:12;94622.19;;;12.35;86.56
20612;BME280;10465;42.686;23.364;2023-03-22T00:47:37;94621.88;;;12.37;86.90
20612;BME280;10465;42.686;23.364;2023-03-22T00:50:04;94622.66;;;12.37;86.72
20612;BME280;10465;42.686;23.364;2023-03-22T00:52:30;94623.78;;;12.36;86.97
20612;BME280;10465;42.686;23.364;2023-03-22T00:54:56;94622.19;;;12.35;87.06
20612;BME280;10465;42.686;23.364;2023-03-22T00:57:22;94625.03;;;12.30;86.83
20612;BME280;10465;42.686;23.364;2023-03-22T00:59:48;94625.81;;;12.31;87.23
20612;BME280;10465;42.686;23.364;2023-03-22T01:02:15;94628.16;;;12.32;87.79
20612;BME280;10465;42.686;23.364;2023-03-22T01:04:42;94609.50;;;12.20;87.15
20612;BME280;10465;42.686;23.364;2023-03-22T01:07:16;94613.66;;;12.30;87.04
20612;BME280;10465;42.686;23.364;2023-03-22T01:09:43;94612.41;;;12.27;87.03
20612;BME280;10465;42.686;23.364;2023-03-22T01:12:09;94613.50;;;12.26;86.29
20612;BME280;10465;42.686;23.364;2023-03-22T01:14:34;94616.16;;;12.26;86.54
20612;BME280;10465;42.686;23.364;2023-03-22T01:17:00;94604.81;;;12.17;86.42
20612;BME280;10465;42.686;23.364;2023-03-22T01:19:25;94607.75;;;12.24;86.07
20612;BME280;10465;42.686;23.364;2023-03-22T01:21:52;94607.63;;;12.21;86.30
20612;BME280;10465;42.686;23.364;2023-03-22T01:24:17;94597.97;;;12.16;86.47
20612;BME280;10465;42.686;23.364;2023-03-22T01:26:43;94588.81;;;12.05;86.37
20612;BME280;10465;42.686;23.364;2023-03-22T01:29:08;94569.97;;;11.98;87.03
20612;BME280;10465;42.686;23.364;2023-03-22T01:31:34;94605.75;;;12.21;86.79
20612;BME280;10465;42.686;23.364;2023-03-22T01:33:59;94600.63;;;12.16;86.81
20612;BME280;10465;42.686;23.364;2023-03-22T01:36:25;94607.47;;;12.17;86.58
20612;BME280;10465;42.686;23.364;2023-03-22T01:38:50;94598.28;;;12.15;86.08
20612;BME280;10465;42.686;23.364;2023-03-22T01:41:16;94597.81;;;12.12;85.99
20612;BME280;10465;42.686;23.364;2023-03-22T01:43:41;94583.56;;;11.96;85.76
20612;BME280;10465;42.686;23.364;2023-03-22T01:46:07;94597.22;;;12.07;85.90
20612;BME280;10465;42.686;23.364;2023-03-22T01:48:36;94599.09;;;12.06;86.43
20612;BME280;10465;42.686;23.364;2023-03-22T01:51:11;94591.97;;;11.98;86.17
20612;BME280;10465;42.686;23.364;2023-03-22T01:53:53;94589.91;;;12.04;86.12
20612;BME280;10465;42.686;23.364;2023-03-22T01:56:22;94591.66;;;12.00;86.23
20612;BME280;10465;42.686;23.364;2023-03-22T01:58:49;94581.88;;;11.92;85.85
20612;BME280;10465;42.686;23.364;2023-03-22T02:01:16;94591.38;;;11.93;85.83
20612;BME280;10465;42.686;23.364;2023-03-22T02:06:13;94570.19;;;11.84;85.93
20612;BME280;10465;42.686;23.364;2023-03-22T02:08:39;94573.28;;;11.86;86.18
20612;BME280;10465;42.686;23.364;2023-03-22T02:11:05;94575.00;;;11.91;86.37
20612;BME280;10465;42.686;23.364;2023-03-22T02:13:40;94590.75;;;11.96;86.09
20612;BME280;10465;42.686;23.364;2023-03-22T02:18:50;94593.25;;;11.92;86.64
20612;BME280;10465;42.686;23.364;2023-03-22T02:21:51;94596.19;;;11.91;86.67
20612;BME280;10465;42.686;23.364;2023-03-22T02:24:59;94591.09;;;11.85;87.26
20612;BME280;10465;42.686;23.364;2023-03-22T02:33:16;94608.53;;;11.86;88.28
20612;BME280;10465;42.686;23.364;2023-03-22T02:44:00;94606.81;;;11.82;88.27
20612;BME280;10465;42.686;23.364;2023-03-22T02:46:34;94617.16;;;11.83;88.34
20612;BME280;10465;42.686;23.364;2023-03-22T02:49:32;94599.53;;;11.70;88.09
20612;BME280;10465;42.686;23.364;2023-03-22T02:52:09;94617.94;;;11.75;88.19
20612;BME280;10465;42.686;23.364;2023-03-22T02:54:38;94613.72;;;11.74;88.51
20612;BME280;10465;42.686;23.364;2023-03-22T02:57:16;94617.28;;;11.78;88.44
20612;BME280;10465;42.686;23.364;2023-03-22T02:59:45;94600.78;;;11.73;87.93
20612;BME280;10465;42.686;23.364;2023-03-22T03:02:14;94622.72;;;11.82;87.59
20612;BME280;10465;42.686;23.364;2023-03-22T03:04:47;94610.91;;;11.79;87.52
20612;BME280;10465;42.686;23.364;2023-03-22T03:07:17;94622.72;;;11.82;87.79
20612;BME280;10465;42.686;23.364;2023-03-22T03:09:46;94610.75;;;11.76;87.80
20612;BME280;10465;42.686;23.364;2023-03-22T03:12:25;94598.91;;;11.73;87.62
20612;BME280;10465;42.686;23.364;2023-03-22T03:14:52;94613.22;;;11.81;87.78
20612;BME280;10465;42.686;23.364;2023-03-22T03:25:26;94625.25;;;11.87;87.35
20612;BME280;10465;42.686;23.364;2023-03-22T03:31:00;94620.25;;;11.85;86.90
20612;BME280;10465;42.686;23.364;2023-03-22T03:33:28;94624.78;;;11.85;87.26
20612;BME280;10465;42.686;23.364;2023-03-22T03:36:07;94629.47;;;11.88;87.10
20612;BME280;10465;42.686;23.364;2023-03-22T03:38:37;94629.47;;;11.88;87.04
20612;BME280;10465;42.686;23.364;2023-03-22T03:41:07;94625.88;;;11.84;87.10
20612;BME280;10465;42.686;23.364;2023-03-22T03:43:35;94616.97;;;11.80;86.84
20612;BME280;10465;42.686;23.364;2023-03-22T03:46:02;94629.00;;;11.86;86.45
20612;BME280;10465;42.686;23.364;2023-03-22T03:48:30;94626.34;;;11.86;86.45
20612;BME280;10465;42.686;23.364;2023-03-22T03:50:58;94616.84;;;11.76;85.71
20612;BME280;10465;42.686;23.364;2023-03-22T03:53:25;94631.47;;;11.82;85.34
20612;BME280;10465;42.686;23.364;2023-03-22T03:55:50;94640.69;;;11.85;85.36
20612;BME280;10465;42.686;23.364;2023-03-22T03:58:16;94635.53;;;11.88;85.10
20612;BME280;10465;42.686;23.364;2023-03-22T04:00:42;94612.00;;;11.70;85.44
20612;BME280;10465;42.686;23.364;2023-03-22T04:03:08;94611.88;;;11.66;85.14
20612;BME280;10465;42.686;23.364;2023-03-22T04:05:33;94638.63;;;11.91;85.22
20612;BME280;10465;42.686;23.364;2023-03-22T04:07:59;94620.09;;;11.82;85.20
20612;BME280;10465;42.686;23.364;2023-03-22T04:10:24;94642.41;;;11.90;85.21
20612;BME280;10465;42.686;23.364;2023-03-22T04:12:49;94612.19;;;11.64;85.32
20612;BME280;10465;42.686;23.364;2023-03-22T04:15:15;94637.88;;;11.81;85.40
20612;BME280;10465;42.686;23.364;2023-03-22T04:17:40;94648.34;;;11.86;85.53
20612;BME280;10465;42.686;23.364;2023-03-22T04:20:07;94644.91;;;11.86;85.57
20612;BME280;10465;42.686;23.364;2023-03-22T04:22:35;94647.09;;;11.84;85.41
20612;BME280;10465;42.686;23.364;2023-03-22T04:25:12;94647.88;;;11.84;85.18
20612;BME280;10465;42.686;23.364;2023-03-22T04:27:43;94636.34;;;11.72;85.97
20612;BME280;10465;42.686;23.364;2023-03-22T04:30:12;94623.28;;;11.58;85.82
20612;BME280;10465;42.686;23.364;2023-03-22T04:32:45;94645.53;;;11.74;85.99
20612;BME280;10465;42.686;23.364;2023-03-22T04:35:11;94653.19;;;11.76;85.48
20612;BME280;10465;42.686;23.364;2023-03-22T04:37:37;94625.94;;;11.58;85.76
20612;BME280;10465;42.686;23.364;2023-03-22T04:40:02;94656.91;;;11.75;85.42
20612;BME280;10465;42.686;23.364;2023-03-22T04:42:31;94658.78;;;11.74;85.19
20612;BME280;10465;42.686;23.364;2023-03-22T04:44:57;94657.25;;;11.73;85.34
20612;BME280;10465;42.686;23.364;2023-03-22T04:47:22;94637.00;;;11.60;85.23
20612;BME280;10465;42.686;23.364;2023-03-22T04:49:48;94637.63;;;11.57;85.48
20612;BME280;10465;42.686;23.364;2023-03-22T04:52:14;94658.78;;;11.74;86.00
20612;BME280;10465;42.686;23.364;2023-03-22T04:54:40;94654.63;;;11.64;85.48
20612;BME280;10465;42.686;23.364;2023-03-22T04:57:05;94641.69;;;11.54;85.65
20612;BME280;10465;42.686;23.364;2023-03-22T04:59:31;94653.22;;;11.58;85.47
20612;BME280;10465;42.686;23.364;2023-03-22T05:01:57;94645.00;;;11.51;85.79
20612;BME280;10465;42.686;23.364;2023-03-22T05:04:23;94656.53;;;11.55;85.86
20612;BME280;10465;42.686;23.364;2023-03-22T05:06:48;94653.88;;;11.55;85.95
20612;BME280;10465;42.686;23.364;2023-03-22T05:09:14;94682.66;;;11.74;85.94
20612;BME280;10465;42.686;23.364;2023-03-22T05:11:40;94675.03;;;11.73;86.05
20612;BME280;10465;42.686;23.364;2023-03-22T05:14:08;94684.22;;;11.75;86.78
20612;BME280;10465;42.686;23.364;2023-03-22T05:16:34;94653.88;;;11.55;86.18
20612;BME280;10465;42.686;23.364;2023-03-22T05:19:00;94689.22;;;11.77;85.59
20612;BME280;10465;42.686;23.364;2023-03-22T05:21:27;94675.81;;;11.64;85.64
20612;BME280;10465;42.686;23.364;2023-03-22T05:23:55;94689.84;;;11.74;85.88
20612;BME280;10465;42.686;23.364;2023-03-22T05:26:22;94690.47;;;11.71;85.59
20612;BME280;10465;42.686;23.364;2023-03-22T05:28:52;94692.03;;;11.72;86.07
20612;BME280;10465;42.686;23.364;2023-03-22T05:31:19;94654.81;;;11.42;86.07
20612;BME280;10465;42.686;23.364;2023-03-22T05:33:49;94700.91;;;11.76;86.02
20612;BME280;10465;42.686;23.364;2023-03-22T05:36:17;94697.50;;;11.75;86.02
20612;BME280;10465;42.686;23.364;2023-03-22T05:38:43;94702.47;;;11.77;85.47
20612;BME280;10465;42.686;23.364;2023-03-22T05:41:09;94710.09;;;11.78;85.64
20612;BME280;10465;42.686;23.364;2023-03-22T05:43:35;94703.56;;;11.76;85.73
20612;BME280;10465;42.686;23.364;2023-03-22T05:46:09;94692.03;;;11.72;85.75
20612;BME280;10465;42.686;23.364;2023-03-22T05:48:36;94680.81;;;11.66;86.66
20612;BME280;10465;42.686;23.364;2023-03-22T05:51:04;94709.03;;;11.79;86.21
20612;BME280;10465;42.686;23.364;2023-03-22T05:53:30;94710.56;;;11.80;85.29
20612;BME280;10465;42.686;23.364;2023-03-22T05:55:57;94697.34;;;11.72;85.19
20612;BME280;10465;42.686;23.364;2023-03-22T05:58:26;94690.00;;;11.69;84.13
20612;BME280;10465;42.686;23.364;2023-03-22T06:00:53;94715.72;;;11.85;84.37
20612;BME280;10465;42.686;23.364;2023-03-22T06:03:20;94720.09;;;11.81;83.87
20612;BME280;10465;42.686;23.364;2023-03-22T06:05:46;94719.50;;;11.84;83.68
20612;BME280;10465;42.686;23.364;2023-03-22T06:08:15;94723.84;;;11.89;83.71
20612;BME280;10465;42.686;23.364;2023-03-22T06:10:40;94702.66;;;11.72;83.63
20612;BME280;10465;42.686;23.364;2023-03-22T06:13:06;94725.91;;;11.83;84.31
20612;BME280;10465;42.686;23.364;2023-03-22T06:15:31;94725.56;;;11.85;84.37
20612;BME280;10465;42.686;23.364;2023-03-22T06:17:57;94728.22;;;11.85;84.47
20612;BME280;10465;42.686;23.364;2023-03-22T06:20:22;94713.41;;;11.75;84.34
20612;BME280;10465;42.686;23.364;2023-03-22T06:22:49;94727.41;;;11.93;84.80
20612;BME280;10465;42.686;23.364;2023-03-22T06:25:15;94728.03;;;11.90;84.64
20612;BME280;10465;42.686;23.364;2023-03-22T06:27:40;94706.06;;;11.72;84.35
20612;BME280;10465;42.686;23.364;2023-03-22T06:30:06;94737.69;;;11.95;84.74
20612;BME280;10465;42.686;23.364;2023-03-22T06:32:32;94719.63;;;11.79;84.93
20612;BME280;10465;42.686;23.364;2023-03-22T06:34:57;94717.28;;;11.86;85.11
20612;BME280;10465;42.686;23.364;2023-03-22T06:37:23;94740.97;;;12.00;84.60
20612;BME280;10465;42.686;23.364;2023-03-22T06:39:49;94746.88;;;12.06;84.09
20612;BME280;10465;42.686;23.364;2023-03-22T06:42:16;94734.56;;;12.01;84.27
20612;BME280;10465;42.686;23.364;2023-03-22T06:44:41;94740.63;;;12.10;85.17
20612;BME280;10465;42.686;23.364;2023-03-22T06:47:09;94736.91;;;12.03;85.02
20612;BME280;10465;42.686;23.364;2023-03-22T06:49:36;94747.97;;;12.13;85.45
20612;BME280;10465;42.686;23.364;2023-03-22T06:52:01;94747.31;;;12.25;85.55
20612;BME280;10465;42.686;23.364;2023-03-22T06:54:27;94732.66;;;12.10;85.35
20612;BME280;10465;42.686;23.364;2023-03-22T06:56:53;94731.13;;;12.09;84.73
20612;BME280;10465;42.686;23.364;2023-03-22T06:59:18;94758.25;;;12.24;84.81
20612;BME280;10465;42.686;23.364;2023-03-22T07:01:44;94735.81;;;12.12;83.22
20612;BME280;10465;42.686;23.364;2023-03-22T07:04:10;94764.94;;;12.30;83.56
20612;BME280;10465;42.686;23.364;2023-03-22T07:06:35;94757.75;;;12.30;83.15
20612;BME280;10465;42.686;23.364;2023-03-22T07:09:01;94760.88;;;12.32;81.88
20612;BME280;10465;42.686;23.364;2023-03-22T07:11:26;94759.81;;;12.25;82.17
20612;BME280;10465;42.686;23.364;2023-03-22T07:13:53;94770.97;;;12.39;82.18
20612;BME280;10465;42.686;23.364;2023-03-22T07:16:20;94751.38;;;12.23;82.83
20612;BME280;10465;42.686;23.364;2023-03-22T07:18:45;94767.91;;;12.28;81.63
20612;BME280;10465;42.686;23.364;2023-03-22T07:21:12;94761.38;;;12.17;81.88
20612;BME280;10465;42.686;23.364;2023-03-22T07:23:38;94768.72;;;12.20;81.98
20612;BME280;10465;42.686;23.364;2023-03-22T07:26:04;94756.38;;;12.24;81.80
20612;BME280;10465;42.686;23.364;2023-03-22T07:28:30;94781.16;;;12.37;80.55
20612;BME280;10465;42.686;23.364;2023-03-22T07:31:03;94779.41;;;12.41;80.52
20612;BME280;10465;42.686;23.364;2023-03-22T07:33:29;94781.44;;;12.44;80.98
20612;BME280;10465;42.686;23.364;2023-03-22T07:35:54;94793.28;;;12.47;80.57
20612;BME280;10465;42.686;23.364;2023-03-22T07:38:20;94788.63;;;12.44;80.61
20612;BME280;10465;42.686;23.364;2023-03-22T07:40:45;94775.50;;;12.38;81.94
20612;BME280;10465;42.686;23.364;2023-03-22T07:43:11;94794.06;;;12.56;82.29
20612;BME280;10465;42.686;23.364;2023-03-22T07:45:37;94793.09;;;12.60;81.67
20612;BME280;10465;42.686;23.364;2023-03-22T07:48:03;94796.38;;;12.57;80.32
20612;BME280;10465;42.686;23.364;2023-03-22T07:50:28;94756.63;;;12.31;80.34
20612;BME280;10465;42.686;23.364;2023-03-22T07:52:54;94785.78;;;12.49;80.67
20612;BME280;10465;42.686;23.364;2023-03-22T07:55:20;94787.19;;;12.46;80.33
20612;BME280;10465;42.686;23.364;2023-03-22T07:57:45;94804.66;;;12.56;80.74
20612;BME280;10465;42.686;23.364;2023-03-22T08:00:11;94755.28;;;12.17;81.07
20612;BME280;10465;42.686;23.364;2023-03-22T08:02:36;94804.06;;;12.50;81.86
20612;BME280;10465;42.686;23.364;2023-03-22T08:05:03;94805.78;;;12.46;82.20
20612;BME280;10465;42.686;23.364;2023-03-22T08:07:29;94763.09;;;12.22;82.90
20612;BME280;10465;42.686;23.364;2023-03-22T08:09:56;94800.31;;;12.43;82.61
20612;BME280;10465;42.686;23.364;2023-03-22T08:12:21;94805.78;;;12.46;81.96
20612;BME280;10465;42.686;23.364;2023-03-22T08:14:47;94800.28;;;12.51;82.48
20612;BME280;10465;42.686;23.364;2023-03-22T08:17:15;94802.50;;;12.49;81.52
20612;BME280;10465;42.686;23.364;2023-03-22T08:19:41;94802.03;;;12.47;81.39
20612;BME280;10465;42.686;23.364;2023-03-22T08:22:06;94810.47;;;12.49;81.45
20612;BME280;10465;42.686;23.364;2023-03-22T08:24:32;94803.59;;;12.48;81.76
20612;BME280;10465;42.686;23.364;2023-03-22T08:26:57;94789.13;;;12.37;80.77
20612;BME280;10465;42.686;23.364;2023-03-22T08:29:23;94782.41;;;12.31;80.54
20612;BME280;10465;42.686;23.364;2023-03-22T08:31:49;94809.06;;;12.52;80.98
20612;BME280;10465;42.686;23.364;2023-03-22T08:34:15;94813.72;;;12.55;80.77
20612;BME280;10465;42.686;23.364;2023-03-22T08:36:40;94763.84;;;12.22;80.60
20612;BME280;10465;42.686;23.364;2023-03-22T08:39:06;94810.75;;;12.56;80.50
20612;BME280;10465;42.686;23.364;2023-03-22T08:41:33;94766.47;;;12.31;80.39
20612;BME280;10465;42.686;23.364;2023-03-22T08:43:58;94804.06;;;12.50;80.07
20612;BME280;10465;42.686;23.364;2023-03-22T08:46:23;94821.66;;;12.63;80.21
20612;BME280;10465;42.686;23.364;2023-03-22T08:48:49;94823.22;;;12.65;80.03
20612;BME280;10465;42.686;23.364;2023-03-22T08:51:19;94790.00;;;12.50;80.01
20612;BME280;10465;42.686;23.364;2023-03-22T08:53:47;94827.88;;;12.68;80.16
20612;BME280;10465;42.686;23.364;2023-03-22T08:56:12;94818.34;;;12.67;80.61
20612;BME280;10465;42.686;23.364;2023-03-22T08:58:45;94825.66;;;12.78;81.68
20612;BME280;10465;42.686;23.364;2023-03-22T09:01:15;94823.19;;;12.73;80.82
20612;BME280;10465;42.686;23.364;2023-03-22T09:03:41;94814.94;;;12.66;80.35
20612;BME280;10465;42.686;23.364;2023-03-22T09:06:08;94810.09;;;12.68;80.29
20612;BME280;10465;42.686;23.364;2023-03-22T09:08:34;94791.88;;;12.49;80.30
20612;BME280;10465;42.686;23.364;2023-03-22T09:11:00;94830.38;;;12.73;80.23
20612;BME280;10465;42.686;23.364;2023-03-22T09:13:26;94833.53;;;12.66;80.54
20612;BME280;10465;42.686;23.364;2023-03-22T09:15:52;94834.78;;;12.69;81.45
20612;BME280;10465;42.686;23.364;2023-03-22T09:18:18;94809.06;;;12.52;80.91
20612;BME280;10465;42.686;23.364;2023-03-22T09:20:44;94841.44;;;12.75;80.30
20612;BME280;10465;42.686;23.364;2023-03-22T09:23:11;94835.22;;;12.71;79.91
20612;BME280;10465;42.686;23.364;2023-03-22T09:25:37;94831.78;;;12.70;80.37
20612;BME280;10465;42.686;23.364;2023-03-22T09:28:03;94829.28;;;12.74;80.80
20612;BME280;10465;42.686;23.364;2023-03-22T09:30:29;94835.31;;;12.83;81.32
20612;BME280;10465;42.686;23.364;2023-03-22T09:32:55;94841.13;;;12.85;81.99
20612;BME280;10465;42.686;23.364;2023-03-22T09:35:21;94809.28;;;12.68;81.75
20612;BME280;10465;42.686;23.364;2023-03-22T09:37:47;94824.56;;;12.79;81.40
20612;BME280;10465;42.686;23.364;2023-03-22T09:40:13;94841.38;;;12.92;81.17
20612;BME280;10465;42.686;23.364;2023-03-22T09:42:41;94838.84;;;12.96;80.37
20612;BME280;10465;42.686;23.364;2023-03-22T09:45:40;94814.59;;;12.76;79.24
20612;BME280;10465;42.686;23.364;2023-03-22T09:48:19;94818.78;;;12.77;79.58
20612;BME280;10465;42.686;23.364;2023-03-22T09:50:53;94838.72;;;12.92;79.82
20612;BME280;10465;42.686;23.364;2023-03-22T09:53:21;94813.66;;;12.72;80.03
20612;BME280;10465;42.686;23.364;2023-03-22T09:55:58;94832.63;;;12.92;79.52
20612;BME280;10465;42.686;23.364;2023-03-22T09:58:37;94840.88;;;12.99;78.85
20612;BME280;10465;42.686;23.364;2023-03-22T10:01:20;94837.72;;;13.05;78.05
20612;BME280;10465;42.686;23.364;2023-03-22T10:09:40;94838.38;;;13.02;76.73
20612;BME280;10465;42.686;23.364;2023-03-22T10:12:21;94846.78;;;13.04;76.83
20612;BME280;10465;42.686;23.364;2023-03-22T10:14:58;94852.38;;;13.11;77.87
20612;BME280;10465;42.686;23.364;2023-03-22T10:17:28;94855.19;;;13.15;77.66
20612;BME280;10465;42.686;23.364;2023-03-22T10:20:00;94855.03;;;13.11;77.72
20612;BME280;10465;42.686;23.364;2023-03-22T10:22:33;94852.09;;;13.13;77.61
20612;BME280;10465;42.686;23.364;2023-03-22T10:25:00;94839.47;;;13.01;78.73
20612;BME280;10465;42.686;23.364;2023-03-22T10:27:28;94859.53;;;13.20;79.08
20612;BME280;10465;42.686;23.364;2023-03-22T10:29:58;94864.06;;;13.19;79.14
20612;BME280;10465;42.686;23.364;2023-03-22T10:32:43;94853.97;;;13.13;79.51
20612;BME280;10465;42.686;23.364;2023-03-22T10:35:14;94844.41;;;13.11;80.53
20612;BME280;10465;42.686;23.364;2023-03-22T10:37:40;94835.34;;;13.13;79.50
20612;BME280;10465;42.686;23.364;2023-03-22T10:40:15;94822.16;;;12.95;78.89
20612;BME280;10465;42.686;23.364;2023-03-22T10:42:43;94844.28;;;13.08;78.99
20612;BME280;10465;42.686;23.364;2023-03-22T10:45:13;94836.72;;;12.89;79.82
20612;BME280;10465;42.686;23.364;2023-03-22T10:50:41;94859.44;;;13.07;80.03
20612;BME280;10465;42.686;23.364;2023-03-22T10:55:42;94851.16;;;13.09;76.78
20612;BME280;10465;42.686;23.364;2023-03-22T10:58:12;94849.31;;;13.01;75.49
20612;BME280;10465;42.686;23.364;2023-03-22T11:00:49;94850.09;;;13.01;75.75
20612;BME280;10465;42.686;23.364;2023-03-22T11:06:00;94846.06;;;12.95;74.30
20612;BME280;10465;42.686;23.364;2023-03-22T11:08:25;94838.09;;;12.95;74.09
20612;BME280;10465;42.686;23.364;2023-03-22T11:10:51;94845.75;;;12.97;75.22
20612;BME280;10465;42.686;23.364;2023-03-22T11:13:19;94842.44;;;13.00;74.91
20612;BME280;10465;42.686;23.364;2023-03-22T11:16:05;94834.97;;;12.93;73.71
20612;BME280;10465;42.686;23.364;2023-03-22T11:18:34;94845.09;;;13.00;73.14
20612;BME280;10465;42.686;23.364;2023-03-22T11:21:05;94846.66;;;13.01;73.69
20612;BME280;10465;42.686;23.364;2023-03-22T11:23:33;94840.06;;;13.07;73.96
20612;BME280;10465;42.686;23.364;2023-03-22T11:26:11;94833.69;;;12.99;74.78
20612;BME280;10465;42.686;23.364;2023-03-22T11:28:45;94819.34;;;12.92;75.52
20612;BME280;10465;42.686;23.364;2023-03-22T11:31:20;94823.69;;;12.96;76.01
20612;BME280;10465;42.686;23.364;2023-03-22T11:33:56;94824.81;;;12.95;75.22
20612;BME280;10465;42.686;23.364;2023-03-22T11:36:22;94836.69;;;12.98;74.74
20612;BME280;10465;42.686;23.364;2023-03-22T11:38:59;94827.84;;;12.85;74.80
20612;BME280;10465;42.686;23.364;2023-03-22T11:41:27;94834.38;;;12.87;75.63
20612;BME280;10465;42.686;23.364;2023-03-22T11:43:55;94829.88;;;12.79;76.09
20612;BME280;10465;42.686;23.364;2023-03-22T11:46:22;94824.41;;;12.76;75.92
20612;BME280;10465;42.686;23.364;2023-03-22T11:48:50;94821.94;;;12.71;76.37
20612;BME280;10465;42.686;23.364;2023-03-22T11:51:25;94830.88;;;12.66;78.22
20612;BME280;10465;42.686;23.364;2023-03-22T11:53:55;94814.38;;;12.52;78.73
20612;BME280;10465;42.686;23.364;2023-03-22T11:56:27;94835.06;;;12.67;78.05
20612;BME280;10465;42.686;23.364;2023-03-22T11:59:45;94836.03;;;12.62;78.01
20612;BME280;10465;42.686;23.364;2023-03-22T12:01:59;94834.47;;;12.61;79.04
20612;BME280;10465;42.686;23.364;2023-03-22T12:04:28;94834.47;;;12.61;78.62
20612;BME280;10465;42.686;23.364;2023-03-22T12:06:58;94832.78;;;12.57;78.73
20612;BME280;10465;42.686;23.364;2023-03-22T12:09:37;94838.19;;;12.69;78.51
20612;BME280;10465;42.686;23.364;2023-03-22T12:12:09;94834.59;;;12.74;78.73
20612;BME280;10465;42.686;23.364;2023-03-22T12:16:05;94828.94;;;12.75;76.98
20612;BME280;10465;42.686;23.364;2023-03-22T12:23:26;94826.81;;;12.98;77.80
20612;BME280;10465;42.686;23.364;2023-03-22T12:25:58;94821.00;;;13.05;77.97
20612;BME280;10465;42.686;23.364;2023-03-22T12:28:30;94815.69;;;13.05;77.56
20612;BME280;10465;42.686;23.364;2023-03-22T12:30:58;94827.03;;;13.23;77.07
20612;BME280;10465;42.686;23.364;2023-03-22T12:35:58;94815.78;;;13.17;76.44
20612;BME280;10465;42.686;23.364;2023-03-22T12:38:35;94830.25;;;13.37;75.52
20612;BME280;10465;42.686;23.364;2023-03-22T12:41:11;94822.34;;;13.49;74.61
20612;BME280;10465;42.686;23.364;2023-03-22T12:43:57;94799.28;;;13.32;72.76
20612;BME280;10465;42.686;23.364;2023-03-22T12:46:32;94801.53;;;13.22;73.68
20612;BME280;10465;42.686;23.364;2023-03-22T12:49:11;94818.03;;;13.57;73.24
20612;BME280;10465;42.686;23.364;2023-03-22T12:51:41;94818.81;;;13.78;72.85
20612;BME280;10465;42.686;23.364;2023-03-22T12:54:10;94820.31;;;13.88;71.44
20612;BME280;10465;42.686;23.364;2023-03-22T12:56:41;94819.09;;;13.85;70.74
20612;BME280;10465;42.686;23.364;2023-03-22T12:59:15;94827.38;;;13.84;70.99
20612;BME280;10465;42.686;23.364;2023-03-22T13:02:04;94807.47;;;13.69;71.29
20612;BME280;10465;42.686;23.364;2023-03-22T13:09:44;94823.56;;;13.73;71.75
20612;BME280;10465;42.686;23.364;2023-03-22T13:14:55;94816.81;;;13.54;72.80
20612;BME280;10465;42.686;23.364;2023-03-22T13:19:53;94816.16;;;13.36;71.94
20612;BME280;10465;42.686;23.364;2023-03-22T13:22:57;94795.56;;;12.95;72.54
20612;BME280;10465;42.686;23.364;2023-03-22T13:28:19;94810.63;;;12.82;75.21
20612;BME280;10465;42.686;23.364;2023-03-22T13:30:53;94794.50;;;12.87;75.37
20612;BME280;10465;42.686;23.364;2023-03-22T13:33:27;94804.75;;;13.06;75.11
20612;BME280;10465;42.686;23.364;2023-03-22T13:39:08;94793.91;;;13.11;76.54
20612;BME280;10465;42.686;23.364;2023-03-22T13:41:35;94806.00;;;13.09;78.00
20612;BME280;10465;42.686;23.364;2023-03-22T13:44:02;94801.94;;;13.03;80.45
20612;BME280;10465;42.686;23.364;2023-03-22T13:46:44;94810.19;;;13.10;81.39
20612;BME280;10465;42.686;23.364;2023-03-22T13:49:42;94813.56;;;13.19;81.10
20612;BME280;10465;42.686;23.364;2023-03-22T13:52:24;94818.56;;;13.29;80.53
20612;BME280;10465;42.686;23.364;2023-03-22T13:54:52;94809.06;;;13.41;80.50
20612;BME280;10465;42.686;23.364;2023-03-22T13:57:38;94800.03;;;13.42;78.93
20612;BME280;10465;42.686;23.364;2023-03-22T14:00:16;94798.50;;;13.53;78.18
20612;BME280;10465;42.686;23.364;2023-03-22T14:02:43;94803.91;;;13.86;76.24
20612;BME280;10465;42.686;23.364;2023-03-22T14:05:20;94809.91;;;14.28;74.43
20612;BME280;10465;42.686;23.364;2023-03-22T14:07:50;94783.53;;;14.35;73.05
20612;BME280;10465;42.686;23.364;2023-03-22T14:10:27;94804.22;;;14.51;73.56